sensor_id;sensor_type;location;lat;lon;timestamp;P1;durP1;ratioP1;P2;durP2;ratioP2
56730;SDS011;42613;47.424;8.560;2022-12-10T10:48:08;15.30;;;10.65;;
56730;SDS011;42613;47.424;8.560;2022-12-10T10:50:37;17.17;;;11.20;;
56730;SDS011;42613;47.424;8.560;2022-12-10T10:56:13;13.98;;;10.75;;
56730;SDS011;42613;47.424;8.560;2022-12-10T10:59:02;13.73;;;10.40;;
56730;SDS011;42613;47.424;8.560;2022-12-10T11:01:46;18.17;;;10.90;;
56730;SDS011;42613;47.424;8.560;2022-12-10T11:04:14;18.17;;;11.25;;
56730;SDS011;42613;47.424;8.560;2022-12-10T11:06:42;16.75;;;10.43;;
56730;SDS011;42613;47.424;8.560;2022-12-10T11:09:13;14.27;;;10.15;;
56730;SDS011;42613;47.424;8.560;2022-12-10T11:11:44;19.15;;;11.77;;
56730;SDS011;42613;47.424;8.560;2022-12-10T11:14:26;14.05;;;9.50;;
56730;SDS011;42613;47.424;8.560;2022-12-10T11:17:02;15.82;;;10.40;;
56730;SDS011;42613;47.424;8.560;2022-12-10T11:19:56;14.40;;;10.45;;
56730;SDS011;42613;47.424;8.560;2022-12-10T11:22:31;14.40;;;8.82;;
56730;SDS011;42613;47.424;8.560;2022-12-10T11:24:58;14.90;;;9.60;;
56730;SDS011;42613;47.424;8.560;2022-12-10T11:30:15;18.20;;;9.50;;
56730;SDS011;42613;47.424;8.560;2022-12-10T11:38:32;12.05;;;8.73;;
56730;SDS011;42613;47.424;8.560;2022-12-10T11:41:15;17.92;;;8.05;;
56730;SDS011;42613;47.424;8.560;2022-12-10T11:46:35;11.73;;;8.50;;
56730;SDS011;42613;47.424;8.560;2022-12-10T11:49:17;11.57;;;7.78;;
56730;SDS011;42613;47.424;8.560;2022-12-10T12:00:23;12.27;;;7.95;;
56730;SDS011;42613;47.424;8.560;2022-12-10T12:26:07;10.70;;;7.97;;
56730;SDS011;42613;47.424;8.560;2022-12-10T12:28:47;11.93;;;8.43;;
56730;SDS011;42613;47.424;8.560;2022-12-10T12:31:21;13.95;;;8.57;;
56730;SDS011;42613;47.424;8.560;2022-12-10T12:47:52;15.75;;;9.05;;
56730;SDS011;42613;47.424;8.560;2022-12-10T12:53:19;14.13;;;8.30;;
56730;SDS011;42613;47.424;8.560;2022-12-10T12:55:55;19.25;;;12.05;;
56730;SDS011;42613;47.424;8.560;2022-12-10T13:38:53;17.80;;;9.77;;
56730;SDS011;42613;47.424;8.560;2022-12-10T14:25:29;10.27;;;6.65;;
56730;SDS011;42613;47.424;8.560;2022-12-10T14:28:22;10.15;;;7.15;;
56730;SDS011;42613;47.424;8.560;2022-12-10T14:30:53;14.50;;;7.18;;
56730;SDS011;42613;47.424;8.560;2022-12-10T14:33:54;10.95;;;7.18;;
56730;SDS011;42613;47.424;8.560;2022-12-10T14:47:05;19.40;;;8.40;;
56730;SDS011;42613;47.424;8.560;2022-12-10T14:53:35;11.63;;;7.25;;
56730;SDS011;42613;47.424;8.560;2022-12-10T15:20:48;14.90;;;7.20;;
56730;SDS011;42613;47.424;8.560;2022-12-10T15:25:45;11.48;;;6.63;;
56730;SDS011;42613;47.424;8.560;2022-12-10T15:28:21;11.98;;;7.28;;
56730;SDS011;42613;47.424;8.560;2022-12-10T15:36:19;18.85;;;7.93;;
56730;SDS011;42613;47.424;8.560;2022-12-10T15:38:45;13.25;;;7.47;;
56730;SDS011;42613;47.424;8.560;2022-12-10T15:41:23;10.65;;;7.20;;
56730;SDS011;42613;47.424;8.560;2022-12-10T15:43:58;12.30;;;8.25;;
56730;SDS011;42613;47.424;8.560;2022-12-10T15:46:29;11.63;;;7.57;;
56730;SDS011;42613;47.424;8.560;2022-12-10T15:48:54;11.05;;;8.00;;
56730;SDS011;42613;47.424;8.560;2022-12-10T15:51:19;11.20;;;8.13;;
56730;SDS011;42613;47.424;8.560;2022-12-10T15:53:45;10.95;;;7.60;;
56730;SDS011;42613;47.424;8.560;2022-12-10T15:56:10;11.60;;;7.35;;
56730;SDS011;42613;47.424;8.560;2022-12-10T15:58:38;17.23;;;7.82;;
56730;SDS011;42613;47.424;8.560;2022-12-10T16:01:05;11.65;;;7.50;;
56730;SDS011;42613;47.424;8.560;2022-12-10T16:03:31;13.90;;;8.43;;
56730;SDS011;42613;47.424;8.560;2022-12-10T16:05:57;11.30;;;7.03;;
56730;SDS011;42613;47.424;8.560;2022-12-10T16:08:24;13.75;;;7.90;;
56730;SDS011;42613;47.424;8.560;2022-12-10T16:10:54;12.57;;;8.38;;
56730;SDS011;42613;47.424;8.560;2022-12-10T16:13:28;11.23;;;6.97;;
56730;SDS011;42613;47.424;8.560;2022-12-10T16:16:05;13.15;;;7.97;;
56730;SDS011;42613;47.424;8.560;2022-12-10T16:18:32;27.27;;;13.40;;
56730;SDS011;42613;47.424;8.560;2022-12-10T16:20:57;27.80;;;12.60;;
56730;SDS011;42613;47.424;8.560;2022-12-10T16:23:23;26.70;;;12.38;;
56730;SDS011;42613;47.424;8.560;2022-12-10T16:25:48;23.52;;;11.90;;
56730;SDS011;42613;47.424;8.560;2022-12-10T16:28:18;15.43;;;10.70;;
56730;SDS011;42613;47.424;8.560;2022-12-10T16:30:48;18.05;;;9.88;;
56730;SDS011;42613;47.424;8.560;2022-12-10T16:33:16;15.00;;;8.85;;
56730;SDS011;42613;47.424;8.560;2022-12-10T16:35:48;11.82;;;8.38;;
56730;SDS011;42613;47.424;8.560;2022-12-10T16:38:15;17.13;;;9.30;;
56730;SDS011;42613;47.424;8.560;2022-12-10T16:40:42;13.90;;;9.25;;
56730;SDS011;42613;47.424;8.560;2022-12-10T16:43:19;13.68;;;8.77;;
56730;SDS011;42613;47.424;8.560;2022-12-10T16:45:46;13.35;;;9.27;;
56730;SDS011;42613;47.424;8.560;2022-12-10T16:48:13;12.55;;;8.70;;
56730;SDS011;42613;47.424;8.560;2022-12-10T16:50:38;15.27;;;8.90;;
56730;SDS011;42613;47.424;8.560;2022-12-10T16:53:18;13.85;;;8.30;;
56730;SDS011;42613;47.424;8.560;2022-12-10T16:55:48;14.52;;;8.73;;
56730;SDS011;42613;47.424;8.560;2022-12-10T16:58:14;16.75;;;9.02;;
56730;SDS011;42613;47.424;8.560;2022-12-10T17:00:40;18.50;;;9.27;;
56730;SDS011;42613;47.424;8.560;2022-12-10T17:03:10;14.73;;;10.40;;
56730;SDS011;42613;47.424;8.560;2022-12-10T17:05:47;13.38;;;8.48;;
56730;SDS011;42613;47.424;8.560;2022-12-10T17:08:13;15.57;;;8.20;;
56730;SDS011;42613;47.424;8.560;2022-12-10T17:10:39;12.10;;;8.60;;
56730;SDS011;42613;47.424;8.560;2022-12-10T17:13:23;13.05;;;7.53;;
56730;SDS011;42613;47.424;8.560;2022-12-10T17:15:51;14.23;;;9.68;;
56730;SDS011;42613;47.424;8.560;2022-12-10T17:18:17;21.13;;;11.27;;
56730;SDS011;42613;47.424;8.560;2022-12-10T17:20:43;18.25;;;9.48;;
56730;SDS011;42613;47.424;8.560;2022-12-10T17:23:09;16.50;;;9.55;;
56730;SDS011;42613;47.424;8.560;2022-12-10T17:25:35;14.52;;;9.30;;
56730;SDS011;42613;47.424;8.560;2022-12-10T17:28:01;16.35;;;9.93;;
56730;SDS011;42613;47.424;8.560;2022-12-10T17:30:27;17.85;;;10.52;;
56730;SDS011;42613;47.424;8.560;2022-12-10T17:32:52;15.70;;;10.00;;
56730;SDS011;42613;47.424;8.560;2022-12-10T17:35:18;14.32;;;9.82;;
56730;SDS011;42613;47.424;8.560;2022-12-10T17:37:44;17.55;;;9.85;;
56730;SDS011;42613;47.424;8.560;2022-12-10T17:40:16;17.05;;;9.88;;
56730;SDS011;42613;47.424;8.560;2022-12-10T17:42:44;16.45;;;9.30;;
56730;SDS011;42613;47.424;8.560;2022-12-10T17:45:11;13.90;;;8.95;;
56730;SDS011;42613;47.424;8.560;2022-12-10T17:47:38;20.88;;;10.18;;
56730;SDS011;42613;47.424;8.560;2022-12-10T17:50:22;14.68;;;8.60;;
56730;SDS011;42613;47.424;8.560;2022-12-10T17:52:50;16.63;;;9.13;;
56730;SDS011;42613;47.424;8.560;2022-12-10T17:55:16;16.00;;;9.20;;
56730;SDS011;42613;47.424;8.560;2022-12-10T17:57:42;17.50;;;10.20;;
56730;SDS011;42613;47.424;8.560;2022-12-10T18:00:11;13.75;;;9.10;;
56730;SDS011;42613;47.424;8.560;2022-12-10T18:02:39;17.73;;;8.68;;
56730;SDS011;42613;47.424;8.560;2022-12-10T18:05:04;13.80;;;9.10;;
56730;SDS011;42613;47.424;8.560;2022-12-10T18:07:30;14.30;;;8.57;;
56730;SDS011;42613;47.424;8.560;2022-12-10T18:09:55;16.98;;;10.05;;
56730;SDS011;42613;47.424;8.560;2022-12-10T18:12:21;16.73;;;9.57;;
56730;SDS011;42613;47.424;8.560;2022-12-10T18:14:47;18.48;;;10.02;;
56730;SDS011;42613;47.424;8.560;2022-12-10T18:17:13;18.05;;;10.50;;
56730;SDS011;42613;47.424;8.560;2022-12-10T18:19:39;22.52;;;9.93;;
56730;SDS011;42613;47.424;8.560;2022-12-10T18:22:04;22.50;;;10.55;;
56730;SDS011;42613;47.424;8.560;2022-12-10T18:24:30;21.75;;;10.35;;
56730;SDS011;42613;47.424;8.560;2022-12-10T18:26:56;21.83;;;11.00;;
56730;SDS011;42613;47.424;8.560;2022-12-10T18:29:21;16.48;;;9.98;;
56730;SDS011;42613;47.424;8.560;2022-12-10T18:31:47;16.35;;;9.85;;
56730;SDS011;42613;47.424;8.560;2022-12-10T18:34:13;20.70;;;10.93;;
56730;SDS011;42613;47.424;8.560;2022-12-10T18:36:41;18.85;;;11.10;;
56730;SDS011;42613;47.424;8.560;2022-12-10T18:39:21;19.13;;;11.00;;
56730;SDS011;42613;47.424;8.560;2022-12-10T18:41:51;20.17;;;11.18;;
56730;SDS011;42613;47.424;8.560;2022-12-10T18:44:18;20.25;;;11.65;;
56730;SDS011;42613;47.424;8.560;2022-12-10T18:46:48;19.60;;;10.82;;
56730;SDS011;42613;47.424;8.560;2022-12-10T18:49:15;20.10;;;12.25;;
56730;SDS011;42613;47.424;8.560;2022-12-10T18:51:41;21.15;;;10.70;;
56730;SDS011;42613;47.424;8.560;2022-12-10T18:54:06;20.70;;;11.10;;
56730;SDS011;42613;47.424;8.560;2022-12-10T18:56:32;20.58;;;10.82;;
56730;SDS011;42613;47.424;8.560;2022-12-10T18:58:59;22.35;;;11.63;;
56730;SDS011;42613;47.424;8.560;2022-12-10T19:01:25;16.85;;;10.73;;
56730;SDS011;42613;47.424;8.560;2022-12-10T19:03:52;24.67;;;12.35;;
56730;SDS011;42613;47.424;8.560;2022-12-10T19:06:19;22.80;;;12.85;;
56730;SDS011;42613;47.424;8.560;2022-12-10T19:08:46;21.95;;;12.05;;
56730;SDS011;42613;47.424;8.560;2022-12-10T19:11:12;20.38;;;10.25;;
56730;SDS011;42613;47.424;8.560;2022-12-10T19:13:39;20.20;;;11.45;;
56730;SDS011;42613;47.424;8.560;2022-12-10T19:16:09;20.45;;;11.48;;
56730;SDS011;42613;47.424;8.560;2022-12-10T19:18:36;24.02;;;11.80;;
56730;SDS011;42613;47.424;8.560;2022-12-10T19:21:01;28.67;;;11.63;;
56730;SDS011;42613;47.424;8.560;2022-12-10T19:23:28;29.67;;;12.50;;
56730;SDS011;42613;47.424;8.560;2022-12-10T19:25:53;26.63;;;12.75;;
56730;SDS011;42613;47.424;8.560;2022-12-10T19:28:19;25.48;;;12.50;;
56730;SDS011;42613;47.424;8.560;2022-12-10T19:30:44;27.35;;;13.18;;
56730;SDS011;42613;47.424;8.560;2022-12-10T19:33:09;23.80;;;13.02;;
56730;SDS011;42613;47.424;8.560;2022-12-10T19:35:35;28.55;;;13.32;;
56730;SDS011;42613;47.424;8.560;2022-12-10T19:38:00;25.60;;;14.20;;
56730;SDS011;42613;47.424;8.560;2022-12-10T19:40:30;34.85;;;12.95;;
56730;SDS011;42613;47.424;8.560;2022-12-10T19:42:56;21.20;;;12.40;;
56730;SDS011;42613;47.424;8.560;2022-12-10T19:45:23;28.98;;;15.23;;
56730;SDS011;42613;47.424;8.560;2022-12-10T19:47:49;30.15;;;14.00;;
56730;SDS011;42613;47.424;8.560;2022-12-10T19:50:21;23.65;;;13.88;;
56730;SDS011;42613;47.424;8.560;2022-12-10T19:52:50;26.52;;;13.93;;
56730;SDS011;42613;47.424;8.560;2022-12-10T19:55:16;29.30;;;14.90;;
56730;SDS011;42613;47.424;8.560;2022-12-10T19:57:43;32.72;;;16.20;;
56730;SDS011;42613;47.424;8.560;2022-12-10T20:00:17;27.65;;;15.10;;
56730;SDS011;42613;47.424;8.560;2022-12-10T20:02:44;26.52;;;15.07;;
56730;SDS011;42613;47.424;8.560;2022-12-10T20:05:10;29.90;;;15.85;;
56730;SDS011;42613;47.424;8.560;2022-12-10T20:07:36;32.22;;;15.68;;
56730;SDS011;42613;47.424;8.560;2022-12-10T20:10:02;32.25;;;16.38;;
56730;SDS011;42613;47.424;8.560;2022-12-10T20:12:28;29.88;;;15.98;;
56730;SDS011;42613;47.424;8.560;2022-12-10T20:14:53;27.95;;;14.60;;
56730;SDS011;42613;47.424;8.560;2022-12-10T20:17:19;27.63;;;15.43;;
56730;SDS011;42613;47.424;8.560;2022-12-10T20:19:48;31.65;;;14.82;;
56730;SDS011;42613;47.424;8.560;2022-12-10T20:22:14;23.88;;;13.85;;
56730;SDS011;42613;47.424;8.560;2022-12-10T20:24:39;26.27;;;15.32;;
56730;SDS011;42613;47.424;8.560;2022-12-10T20:27:05;27.48;;;15.32;;
56730;SDS011;42613;47.424;8.560;2022-12-10T20:29:30;32.80;;;15.90;;
56730;SDS011;42613;47.424;8.560;2022-12-10T20:31:56;26.38;;;15.13;;
56730;SDS011;42613;47.424;8.560;2022-12-10T20:34:22;31.80;;;15.15;;
56730;SDS011;42613;47.424;8.560;2022-12-10T20:36:49;23.30;;;13.98;;
56730;SDS011;42613;47.424;8.560;2022-12-10T20:39:21;26.73;;;14.45;;
56730;SDS011;42613;47.424;8.560;2022-12-10T20:41:49;25.50;;;13.90;;
56730;SDS011;42613;47.424;8.560;2022-12-10T20:44:16;27.65;;;13.93;;
56730;SDS011;42613;47.424;8.560;2022-12-10T20:46:43;26.73;;;14.25;;
56730;SDS011;42613;47.424;8.560;2022-12-10T20:49:10;24.83;;;15.02;;
56730;SDS011;42613;47.424;8.560;2022-12-10T20:51:36;27.52;;;14.27;;
56730;SDS011;42613;47.424;8.560;2022-12-10T20:54:02;25.30;;;14.05;;
56730;SDS011;42613;47.424;8.560;2022-12-10T20:56:27;22.25;;;13.10;;
56730;SDS011;42613;47.424;8.560;2022-12-10T20:58:52;24.33;;;13.95;;
56730;SDS011;42613;47.424;8.560;2022-12-10T21:01:18;27.65;;;14.88;;
56730;SDS011;42613;47.424;8.560;2022-12-10T21:03:44;24.38;;;13.25;;
56730;SDS011;42613;47.424;8.560;2022-12-10T21:06:12;22.55;;;13.50;;
56730;SDS011;42613;47.424;8.560;2022-12-10T21:08:39;27.45;;;14.63;;
56730;SDS011;42613;47.424;8.560;2022-12-10T21:11:05;24.00;;;14.27;;
56730;SDS011;42613;47.424;8.560;2022-12-10T21:13:31;24.95;;;13.80;;
56730;SDS011;42613;47.424;8.560;2022-12-10T21:15:57;25.23;;;13.95;;
56730;SDS011;42613;47.424;8.560;2022-12-10T21:18:24;23.27;;;13.52;;
56730;SDS011;42613;47.424;8.560;2022-12-10T21:20:51;22.92;;;13.13;;
56730;SDS011;42613;47.424;8.560;2022-12-10T21:23:19;26.20;;;13.05;;
56730;SDS011;42613;47.424;8.560;2022-12-10T21:25:47;21.40;;;12.77;;
56730;SDS011;42613;47.424;8.560;2022-12-10T21:28:12;22.52;;;12.43;;
56730;SDS011;42613;47.424;8.560;2022-12-10T21:30:38;26.48;;;13.15;;
56730;SDS011;42613;47.424;8.560;2022-12-10T21:33:05;23.27;;;12.77;;
56730;SDS011;42613;47.424;8.560;2022-12-10T21:35:30;23.65;;;13.35;;
56730;SDS011;42613;47.424;8.560;2022-12-10T21:37:56;23.35;;;12.55;;
56730;SDS011;42613;47.424;8.560;2022-12-10T21:40:22;24.25;;;13.80;;
56730;SDS011;42613;47.424;8.560;2022-12-10T21:42:48;28.10;;;14.27;;
56730;SDS011;42613;47.424;8.560;2022-12-10T21:45:31;26.65;;;13.15;;
56730;SDS011;42613;47.424;8.560;2022-12-10T21:47:57;24.25;;;13.75;;
56730;SDS011;42613;47.424;8.560;2022-12-10T21:50:25;24.17;;;13.00;;
56730;SDS011;42613;47.424;8.560;2022-12-10T21:52:51;22.15;;;12.63;;
56730;SDS011;42613;47.424;8.560;2022-12-10T21:55:19;22.05;;;12.65;;
56730;SDS011;42613;47.424;8.560;2022-12-10T21:57:45;21.23;;;12.70;;
56730;SDS011;42613;47.424;8.560;2022-12-10T22:00:11;21.63;;;13.13;;
56730;SDS011;42613;47.424;8.560;2022-12-10T22:02:37;22.75;;;13.00;;
56730;SDS011;42613;47.424;8.560;2022-12-10T22:05:03;20.40;;;13.05;;
56730;SDS011;42613;47.424;8.560;2022-12-10T22:07:29;17.25;;;11.05;;
56730;SDS011;42613;47.424;8.560;2022-12-10T22:09:54;22.33;;;13.15;;
56730;SDS011;42613;47.424;8.560;2022-12-10T22:12:20;26.95;;;14.38;;
56730;SDS011;42613;47.424;8.560;2022-12-10T22:14:45;23.60;;;12.52;;
56730;SDS011;42613;47.424;8.560;2022-12-10T22:17:10;29.58;;;13.73;;
56730;SDS011;42613;47.424;8.560;2022-12-10T22:19:36;21.15;;;12.80;;
56730;SDS011;42613;47.424;8.560;2022-12-10T22:22:01;23.80;;;12.15;;
56730;SDS011;42613;47.424;8.560;2022-12-10T22:24:26;26.10;;;13.80;;
56730;SDS011;42613;47.424;8.560;2022-12-10T22:26:52;25.52;;;14.50;;
56730;SDS011;42613;47.424;8.560;2022-12-10T22:29:17;27.80;;;13.30;;
56730;SDS011;42613;47.424;8.560;2022-12-10T22:31:43;21.52;;;12.25;;
56730;SDS011;42613;47.424;8.560;2022-12-10T22:34:08;24.42;;;12.48;;
56730;SDS011;42613;47.424;8.560;2022-12-10T22:36:34;22.95;;;13.02;;
56730;SDS011;42613;47.424;8.560;2022-12-10T22:38:59;22.85;;;13.10;;
56730;SDS011;42613;47.424;8.560;2022-12-10T22:41:24;20.92;;;13.00;;
56730;SDS011;42613;47.424;8.560;2022-12-10T22:43:50;23.02;;;13.10;;
56730;SDS011;42613;47.424;8.560;2022-12-10T22:46:15;19.98;;;13.02;;
56730;SDS011;42613;47.424;8.560;2022-12-10T22:48:41;20.30;;;12.25;;
56730;SDS011;42613;47.424;8.560;2022-12-10T22:51:06;19.60;;;12.27;;
56730;SDS011;42613;47.424;8.560;2022-12-10T22:53:32;27.27;;;11.80;;
56730;SDS011;42613;47.424;8.560;2022-12-10T22:55:59;17.92;;;11.88;;
56730;SDS011;42613;47.424;8.560;2022-12-10T22:58:26;21.55;;;12.13;;
56730;SDS011;42613;47.424;8.560;2022-12-10T23:00:53;24.50;;;13.10;;
56730;SDS011;42613;47.424;8.560;2022-12-10T23:03:19;32.70;;;14.40;;
56730;SDS011;42613;47.424;8.560;2022-12-10T23:05:45;25.55;;;13.40;;
56730;SDS011;42613;47.424;8.560;2022-12-10T23:08:11;21.60;;;10.48;;
56730;SDS011;42613;47.424;8.560;2022-12-10T23:10:38;18.05;;;11.73;;
56730;SDS011;42613;47.424;8.560;2022-12-10T23:13:03;23.90;;;12.40;;
56730;SDS011;42613;47.424;8.560;2022-12-10T23:15:32;14.68;;;10.93;;
56730;SDS011;42613;47.424;8.560;2022-12-10T23:17:58;21.67;;;10.88;;
56730;SDS011;42613;47.424;8.560;2022-12-10T23:20:24;15.30;;;10.43;;
56730;SDS011;42613;47.424;8.560;2022-12-10T23:22:50;20.92;;;12.25;;
56730;SDS011;42613;47.424;8.560;2022-12-10T23:25:16;22.88;;;11.27;;
56730;SDS011;42613;47.424;8.560;2022-12-10T23:27:42;19.60;;;12.05;;
56730;SDS011;42613;47.424;8.560;2022-12-10T23:30:08;18.58;;;11.98;;
56730;SDS011;42613;47.424;8.560;2022-12-10T23:32:35;19.30;;;13.13;;
56730;SDS011;42613;47.424;8.560;2022-12-10T23:35:01;23.48;;;13.18;;
56730;SDS011;42613;47.424;8.560;2022-12-10T23:37:28;20.63;;;12.88;;
56730;SDS011;42613;47.424;8.560;2022-12-10T23:39:58;22.80;;;13.38;;
56730;SDS011;42613;47.424;8.560;2022-12-10T23:42:27;24.85;;;14.38;;
56730;SDS011;42613;47.424;8.560;2022-12-10T23:44:53;22.80;;;13.93;;
56730;SDS011;42613;47.424;8.560;2022-12-10T23:47:19;22.20;;;12.77;;
56730;SDS011;42613;47.424;8.560;2022-12-10T23:49:44;24.20;;;14.05;;
56730;SDS011;42613;47.424;8.560;2022-12-10T23:52:10;26.88;;;14.32;;
56730;SDS011;42613;47.424;8.560;2022-12-10T23:54:35;20.45;;;13.30;;
56730;SDS011;42613;47.424;8.560;2022-12-10T23:57:01;20.92;;;13.25;;
56730;SDS011;42613;47.424;8.560;2022-12-10T23:59:27;27.63;;;15.00;;
